createdAt,value
2024-03-08T00:01:41.861Z,3.37
2024-03-08T00:06:43.183Z,3.21
2024-03-08T00:11:44.578Z,3.15
2024-03-08T00:16:45.891Z,3.10
2024-03-08T00:21:47.203Z,3.19
2024-03-08T00:26:48.591Z,3.10
2024-03-08T00:31:49.984Z,3.00
2024-03-08T00:36:52.858Z,3.00
2024-03-08T00:41:54.142Z,2.85
2024-03-08T00:46:55.791Z,2.88
2024-03-08T00:51:57.098Z,2.74
2024-03-08T00:56:58.421Z,2.78
2024-03-08T01:02:00.395Z,2.80
2024-03-08T01:07:01.687Z,2.73
2024-03-08T01:12:02.998Z,2.73
2024-03-08T01:17:04.271Z,2.28
2024-03-08T01:22:05.561Z,2.49
2024-03-08T01:27:06.864Z,2.65
2024-03-08T01:32:08.231Z,2.59
2024-03-08T01:37:09.430Z,2.55
2024-03-08T01:42:12.769Z,2.62
2024-03-08T01:47:14.017Z,2.46
2024-03-08T01:52:15.819Z,2.54
2024-03-08T01:57:17.185Z,2.42
2024-03-08T02:02:18.434Z,2.43
2024-03-08T02:07:19.621Z,2.39
2024-03-08T02:12:22.049Z,2.35
2024-03-08T02:17:23.522Z,2.35
2024-03-08T02:22:24.782Z,2.25
2024-03-08T02:27:27.480Z,2.25
2024-03-08T02:32:28.758Z,2.18
2024-03-08T02:37:30.048Z,2.00
2024-03-08T02:42:31.357Z,2.19
2024-03-08T02:47:32.761Z,2.10
2024-03-08T02:52:34.660Z,2.01
2024-03-08T02:57:35.905Z,1.89
2024-03-08T03:02:37.192Z,1.99
2024-03-08T03:07:38.487Z,2.01
2024-03-08T03:12:39.747Z,1.83
2024-03-08T03:17:44.077Z,1.81
2024-03-08T03:22:48.233Z,1.94
2024-03-08T03:27:50.677Z,1.78
2024-03-08T03:32:55.818Z,1.84
2024-03-08T03:38:23.354Z,1.88
2024-03-08T03:43:24.668Z,1.68
2024-03-08T03:48:26.027Z,1.59
2024-03-08T03:53:28.595Z,1.60
2024-03-08T03:58:29.888Z,1.61
2024-03-08T04:03:31.118Z,1.78
2024-03-08T04:08:32.620Z,1.83
2024-03-08T04:13:33.939Z,1.82
2024-03-08T04:18:36.909Z,1.94
2024-03-08T04:23:38.269Z,2.07
2024-03-08T04:28:40.788Z,1.99
2024-03-08T04:33:42.123Z,1.82
2024-03-08T04:38:43.473Z,1.79
2024-03-08T04:43:44.737Z,1.77
2024-03-08T04:48:46.088Z,1.65
2024-03-08T04:53:47.427Z,1.54
2024-03-08T04:58:48.686Z,1.34
2024-03-08T05:03:51.101Z,1.28
2024-03-08T05:08:52.333Z,1.49
2024-03-08T05:13:53.574Z,1.55
2024-03-08T05:18:54.864Z,1.61
2024-03-08T05:24:00.212Z,1.59
2024-03-08T05:29:01.619Z,1.55
2024-03-08T05:34:02.986Z,1.58
2024-03-08T05:39:07.318Z,1.58
2024-03-08T05:44:08.667Z,1.62
2024-03-08T05:49:11.566Z,1.64
2024-03-08T05:54:15.624Z,1.72
2024-03-08T05:59:19.518Z,1.75
2024-03-08T06:04:20.783Z,1.69
2024-03-08T06:09:25.051Z,1.61
2024-03-08T06:14:26.896Z,1.55
2024-03-08T06:19:28.135Z,1.61
2024-03-08T06:24:29.384Z,1.74
2024-03-08T06:29:30.772Z,1.77
2024-03-08T06:34:32.043Z,1.79
2024-03-08T06:39:33.680Z,1.95
2024-03-08T06:44:35.713Z,2.00
2024-03-08T06:49:36.964Z,2.18
2024-03-08T06:54:38.218Z,2.27
2024-03-08T06:59:39.478Z,2.30
2024-03-08T07:04:40.687Z,2.38
2024-03-08T07:09:43.822Z,2.57
2024-03-08T07:14:46.374Z,2.64
2024-03-08T07:19:47.711Z,2.71
2024-03-08T07:25:08.151Z,2.90
2024-03-08T07:30:11.385Z,3.17
2024-03-08T07:35:12.658Z,3.35
2024-03-08T07:40:14.839Z,3.72
2024-03-08T07:45:17.255Z,3.38
2024-03-08T07:50:19.256Z,2.48
2024-03-08T07:55:20.628Z,3.02
2024-03-08T08:00:22.792Z,3.63
2024-03-08T08:05:24.033Z,3.83
2024-03-08T08:10:26.651Z,4.26
2024-03-08T08:15:29.530Z,4.54
2024-03-08T08:20:30.806Z,4.95
2024-03-08T08:25:32.143Z,5.08
2024-03-08T08:30:36.541Z,4.83
2024-03-08T08:35:38.520Z,4.84
2024-03-08T08:40:39.840Z,5.00
2024-03-08T08:45:41.264Z,4.91
2024-03-08T08:50:42.498Z,5.21
2024-03-08T08:55:43.859Z,5.73
2024-03-08T09:00:45.672Z,7.84
2024-03-08T09:05:47.383Z,7.01
2024-03-08T09:10:51.801Z,6.39
2024-03-08T09:15:53.794Z,6.39
2024-03-08T09:20:55.025Z,6.34
2024-03-08T09:25:56.295Z,7.61
2024-03-08T09:31:00.664Z,8.16
2024-03-08T09:36:03.883Z,7.84
2024-03-08T09:41:05.769Z,7.13
2024-03-08T09:46:07.717Z,7.29
2024-03-08T09:51:08.927Z,7.31
2024-03-08T09:56:10.210Z,7.61
2024-03-08T10:01:11.502Z,7.82
2024-03-08T10:06:12.890Z,8.32
2024-03-08T10:11:14.292Z,8.81
2024-03-08T10:16:15.557Z,8.64
2024-03-08T10:21:18.242Z,8.61
2024-03-08T10:26:21.651Z,8.72
2024-03-08T10:31:23.028Z,8.88
2024-03-08T10:36:24.826Z,9.37
2024-03-08T10:41:26.716Z,9.44
2024-03-08T10:46:28.132Z,9.21
2024-03-08T10:51:29.860Z,9.49
2024-03-08T10:56:31.159Z,9.56
2024-03-08T11:01:32.554Z,9.66
2024-03-08T11:06:35.270Z,10.14
2024-03-08T11:11:36.587Z,10.58
2024-03-08T11:16:37.990Z,10.60
2024-03-08T11:21:42.925Z,10.93
2024-03-08T11:26:44.219Z,10.94
2024-03-08T11:31:46.859Z,10.92
2024-03-08T11:36:48.179Z,11.25
2024-03-08T11:41:49.643Z,10.93
2024-03-08T11:46:50.937Z,11.72
2024-03-08T11:51:53.310Z,12.19
2024-03-08T11:56:56.084Z,12.57
2024-03-08T12:01:57.487Z,12.39
2024-03-08T12:06:58.992Z,13.07
2024-03-08T12:12:00.501Z,12.56
2024-03-08T12:17:05.741Z,13.74
2024-03-08T12:22:07.073Z,13.40
2024-03-08T12:27:08.309Z,13.45
2024-03-08T12:32:12.569Z,13.39
2024-03-08T12:37:13.953Z,14.14
2024-03-08T12:42:15.243Z,13.82
2024-03-08T12:47:16.469Z,13.78
2024-03-08T12:52:19.490Z,13.33
2024-03-08T12:57:20.719Z,13.49
2024-03-08T13:02:22.010Z,13.75
2024-03-08T13:07:24.715Z,13.93
2024-03-08T13:12:26.064Z,14.54
2024-03-08T13:17:27.745Z,13.81
2024-03-08T13:22:29.344Z,13.75
2024-03-08T13:27:30.677Z,14.06
2024-03-08T13:32:32.611Z,14.12
2024-03-08T13:37:34.591Z,13.79
2024-03-08T13:42:35.830Z,14.05
2024-03-08T13:47:38.134Z,14.45
2024-03-08T13:52:39.418Z,14.51
2024-03-08T13:57:40.627Z,14.80
2024-03-08T14:02:41.933Z,14.66
2024-03-08T14:07:43.226Z,14.00
2024-03-08T14:12:45.295Z,14.09
2024-03-08T14:17:47.835Z,14.02
2024-03-08T14:22:49.315Z,14.50
2024-03-08T14:27:50.698Z,15.10
2024-03-08T14:32:51.955Z,14.77
2024-03-08T14:37:53.455Z,15.60
2024-03-08T14:42:54.734Z,15.87
2024-03-08T14:47:56.115Z,15.88
2024-03-08T14:52:57.773Z,16.01
2024-03-08T14:57:59.024Z,15.71
2024-03-08T15:03:00.328Z,15.23
2024-03-08T15:08:02.262Z,15.47
2024-03-08T15:13:09.507Z,15.23
2024-03-08T15:18:12.065Z,14.40
2024-03-08T15:23:13.661Z,14.39
2024-03-08T15:28:16.802Z,14.54
2024-03-08T15:33:25.188Z,14.92
2024-03-08T15:38:28.549Z,14.44
2024-03-08T15:43:29.961Z,14.00
2024-03-08T15:48:32.498Z,14.19
2024-03-08T15:53:33.786Z,14.02
2024-03-08T15:58:36.946Z,13.50
2024-03-08T16:03:38.514Z,13.16
2024-03-08T16:08:40.766Z,12.84
2024-03-08T16:13:42.557Z,12.68
2024-03-08T16:18:43.855Z,12.63
2024-03-08T16:23:47.457Z,12.69
2024-03-08T16:28:48.734Z,12.18
2024-03-08T16:33:50.032Z,11.56
2024-03-08T16:38:51.266Z,11.15
2024-03-08T16:43:52.853Z,11.09
2024-03-08T16:48:55.559Z,11.07
2024-03-08T16:53:56.841Z,11.08
2024-03-08T16:58:58.112Z,10.92
2024-03-08T17:04:01.290Z,11.00
2024-03-08T17:09:03.878Z,10.65
2024-03-08T17:14:06.067Z,10.67
2024-03-08T17:19:07.474Z,10.91
2024-03-08T17:24:12.529Z,10.44
2024-03-08T17:29:15.477Z,10.51
2024-03-08T17:34:21.375Z,10.59
2024-03-08T17:39:27.152Z,10.63
2024-03-08T17:44:31.238Z,10.63
2024-03-08T17:49:33.895Z,10.22
2024-03-08T17:54:35.241Z,10.12
2024-03-08T17:59:36.692Z,9.89
2024-03-08T18:04:38.695Z,9.70
2024-03-08T18:09:40.003Z,9.35
2024-03-08T18:14:41.442Z,9.41
2024-03-08T18:19:42.687Z,8.97
2024-03-08T18:24:47.123Z,8.87
2024-03-08T18:29:48.310Z,8.64
2024-03-08T18:34:50.996Z,8.92
2024-03-08T18:39:53.006Z,8.85
2024-03-08T18:44:54.229Z,8.91
2024-03-08T18:49:56.061Z,8.40
2024-03-08T18:54:57.329Z,8.29
2024-03-08T18:59:58.706Z,8.04
2024-03-08T19:05:00.013Z,8.11
2024-03-08T19:10:01.306Z,7.96
2024-03-08T19:15:09.503Z,7.60
2024-03-08T19:20:14.546Z,6.89
2024-03-08T19:25:18.832Z,7.10
2024-03-08T19:30:25.265Z,6.71
2024-03-08T19:35:27.463Z,7.01
2024-03-08T19:40:33.261Z,6.97
2024-03-08T19:45:35.074Z,7.09
2024-03-08T19:50:42.288Z,7.04
2024-03-08T19:55:48.016Z,6.97
2024-03-08T20:00:50.068Z,6.79
2024-03-08T20:05:55.064Z,6.75
2024-03-08T20:10:57.530Z,6.46
2024-03-08T20:15:58.918Z,6.32
2024-03-08T20:21:00.232Z,6.22
2024-03-08T20:26:06.319Z,6.38
2024-03-08T20:31:07.760Z,5.98
2024-03-08T20:36:10.214Z,5.54
2024-03-08T20:41:12.478Z,5.46
2024-03-08T20:46:16.457Z,5.77
2024-03-08T20:51:18.308Z,5.91
2024-03-08T20:56:19.632Z,6.13
2024-03-08T21:01:20.997Z,6.22
2024-03-08T21:06:22.319Z,6.21
2024-03-08T21:11:27.770Z,6.08
2024-03-08T21:16:29.106Z,5.98
2024-03-08T21:21:30.333Z,5.96
2024-03-08T21:26:31.524Z,5.89
2024-03-08T21:31:33.000Z,5.87
2024-03-08T21:36:35.292Z,5.88
2024-03-08T21:41:36.532Z,5.94
2024-03-08T21:46:37.827Z,5.68
2024-03-08T21:51:47.107Z,5.86
2024-03-08T21:56:49.097Z,5.71
2024-03-08T22:01:53.881Z,5.82
2024-03-08T22:06:57.164Z,5.75
2024-03-08T22:11:58.601Z,5.76
2024-03-08T22:16:59.913Z,5.59
2024-03-08T22:22:01.243Z,5.03
2024-03-08T22:27:02.514Z,5.15
2024-03-08T22:32:04.004Z,4.93
2024-03-08T22:37:09.769Z,5.00
2024-03-08T22:42:12.291Z,5.10
2024-03-08T22:47:13.560Z,4.97
2024-03-08T22:52:16.356Z,5.32
2024-03-08T22:57:19.489Z,5.22
2024-03-08T23:02:21.432Z,5.36
2024-03-08T23:07:25.066Z,5.28
2024-03-08T23:12:27.487Z,4.95
2024-03-08T23:17:30.390Z,4.93
2024-03-08T23:22:31.711Z,4.85
2024-03-08T23:27:33.884Z,4.93
2024-03-08T23:32:35.677Z,4.94
2024-03-08T23:37:36.950Z,4.91
2024-03-08T23:42:38.196Z,4.67
2024-03-08T23:47:39.880Z,4.75
2024-03-08T23:52:41.161Z,4.69
2024-03-08T23:57:42.382Z,4.70
